Time;durP1;ratioP1;P1;durP2;ratioP2;P2;SDS_P1;SDS_P2;PMS_P1;PMS_P2;Temp;Humidity;BMP_temperature;BMP_pressure;BME280_temperature;BME280_humidity;BME280_pressure;Samples;Min_cycle;Max_cycle;Signal;HPM_P1;HPM_P2
2021/08/27 00:02:07;;;;;;;;;5.25;3.75;;;;;23.04;42.30;101367.91;5058636;28;45310;-46
2021/08/27 00:04:33;;;;;;;;;6.50;5.00;;;;;23.04;42.41;101373.19;5057423;28;46693;-47
2021/08/27 00:06:59;;;;;;;;;5.25;5.25;;;;;23.03;42.48;101374.13;5058484;28;45416;-44
2021/08/27 00:09:24;;;;;;;;;6.25;6.00;;;;;23.04;42.07;101370.53;5058475;28;45380;-45
2021/08/27 00:11:49;;;;;;;;;5.00;5.00;;;;;23.03;42.50;101368.00;5058646;28;45506;-45
2021/08/27 00:14:15;;;;;;;;;5.75;4.75;;;;;23.03;42.11;101366.19;5058240;28;46581;-45
2021/08/27 00:16:40;;;;;;;;;5.00;4.50;;;;;23.02;42.22;101361.84;5058138;28;45459;-45
2021/08/27 00:19:06;;;;;;;;;5.50;4.75;;;;;23.03;42.28;101362.72;5058465;28;45347;-47
2021/08/27 00:21:31;;;;;;;;;7.75;5.50;;;;;23.02;42.31;101367.13;5058357;28;45595;-45
2021/08/27 00:23:58;;;;;;;;;4.25;3.75;;;;;23.01;42.82;101365.44;5058000;28;47422;-44
2021/08/27 00:26:23;;;;;;;;;7.50;5.25;;;;;23.00;42.40;101359.31;5058149;28;45776;-45
2021/08/27 00:28:49;;;;;;;;;6.50;4.50;;;;;23.01;42.37;101361.00;5056754;28;45469;-44
2021/08/27 00:31:14;;;;;;;;;6.00;3.50;;;;;23.00;42.37;101358.44;5058041;28;45652;-44
2021/08/27 00:33:39;;;;;;;;;5.50;4.00;;;;;23.00;42.65;101358.44;5057829;28;45518;-44
2021/08/27 00:36:04;;;;;;;;;7.25;5.75;;;;;22.99;42.36;101349.66;5058005;28;51066;-46
2021/08/27 00:38:30;;;;;;;;;8.00;6.00;;;;;22.99;42.78;101359.38;5058023;28;45269;-45
2021/08/27 00:40:55;;;;;;;;;7.75;5.25;;;;;22.98;42.52;101347.13;5058094;28;45319;-44
2021/08/27 00:43:21;;;;;;;;;5.00;3.50;;;;;22.99;42.47;101357.59;5057626;28;45271;-45
2021/08/27 00:45:46;;;;;;;;;7.25;6.75;;;;;22.99;42.53;101354.09;5058061;28;45381;-45
2021/08/27 00:48:15;;;;;;;;;5.00;5.00;;;;;22.98;42.38;101352.41;5057680;28;45324;-45
2021/08/27 00:50:41;;;;;;;;;5.00;5.00;;;;;22.97;42.46;101348.91;5058202;28;45490;-48
2021/08/27 00:53:07;;;;;;;;;5.00;5.00;;;;;22.98;42.68;101347.13;5057944;28;45399;-44
2021/08/27 00:55:32;;;;;;;;;5.75;4.75;;;;;22.97;42.66;101345.41;5057531;28;45410;-44
2021/08/27 00:57:58;;;;;;;;;6.75;4.00;;;;;22.97;42.91;101343.59;5057741;28;45414;-45
2021/08/27 01:00:23;;;;;;;;;5.50;5.50;;;;;22.96;42.66;101347.19;5057554;28;45442;-46
2021/08/27 01:02:53;;;;;;;;;5.50;5.50;;;;;22.97;42.85;101342.78;5057282;28;45856;-45
2021/08/27 01:05:19;;;;;;;;;4.75;4.75;;;;;22.96;42.68;101339.25;5057371;28;45614;-47
2021/08/27 01:07:56;;;;;;;;;6.75;6.75;;;;;22.97;42.82;101346.25;5057502;28;45296;-47
2021/08/27 01:10:27;;;;;;;;;7.25;7.25;;;;;22.96;42.90;101335.78;5057751;28;45485;-48
2021/08/27 01:13:04;;;;;;;;;7.50;6.50;;;;;22.96;42.80;101341.06;5057356;28;45569;-45
2021/08/27 01:15:52;;;;;;;;;6.50;5.00;;;;;22.95;42.79;101339.34;5057095;28;45357;-45
2021/08/27 01:18:42;;;;;;;;;5.25;5.25;;;;;22.96;42.51;101346.34;5057319;28;45336;-45
2021/08/27 01:21:36;;;;;;;;;6.00;6.00;;;;;22.95;42.79;101340.19;5057848;28;45415;-46
2021/08/27 01:24:07;;;;;;;;;6.25;4.50;;;;;22.95;42.90;101339.34;5057164;28;45309;-44
2021/08/27 01:26:37;;;;;;;;;6.25;5.25;;;;;22.93;42.78;101339.44;5056964;28;45403;-45
2021/08/27 01:29:06;;;;;;;;;5.00;5.00;;;;;22.93;42.86;101335.94;5057250;28;45251;-50
2021/08/27 01:31:39;;;;;;;;;7.25;4.75;;;;;22.92;42.94;101331.59;5057330;28;45296;-46
2021/08/27 01:34:21;;;;;;;;;6.00;4.00;;;;;22.92;42.69;101339.53;5056935;28;45435;-45
2021/08/27 01:36:48;;;;;;;;;6.00;6.00;;;;;22.92;42.69;101334.25;5040504;28;45828;-44
2021/08/27 01:39:16;;;;;;;;;6.00;5.50;;;;;22.92;42.79;101336.88;5056957;28;45354;-48
2021/08/27 01:41:47;;;;;;;;;6.00;6.00;;;;;22.91;43.12;101333.41;5057384;28;45605;-46
2021/08/27 01:44:14;;;;;;;;;6.25;5.00;;;;;22.92;42.96;101328.94;5056831;28;46469;-45
2021/08/27 01:46:42;;;;;;;;;5.50;4.25;;;;;22.91;43.15;101332.53;5055817;28;45975;-45
2021/08/27 01:49:09;;;;;;;;;8.25;5.50;;;;;22.90;42.96;101336.13;5039154;28;45447;-45
2021/08/27 01:51:36;;;;;;;;;4.00;4.00;;;;;22.91;42.90;101332.53;5057170;28;45673;-47
2021/08/27 01:54:02;;;;;;;;;7.00;5.00;;;;;22.89;43.03;101335.28;5056626;28;45351;-46
2021/08/27 01:56:28;;;;;;;;;10.75;6.00;;;;;22.90;42.86;101336.97;5038680;28;45671;-46
2021/08/27 01:58:57;;;;;;;;;6.00;6.00;;;;;22.90;43.07;101336.97;5056446;28;45272;-46
2021/08/27 02:01:25;;;;;;;;;5.50;5.00;;;;;22.89;42.89;101334.41;5056914;28;45365;-44
2021/08/27 02:03:53;;;;;;;;;7.00;6.25;;;;;22.89;42.95;101334.41;5056505;28;45451;-44
2021/08/27 02:06:21;;;;;;;;;4.75;4.75;;;;;22.88;42.88;101338.00;5056496;28;45880;-45
2021/08/27 02:08:47;;;;;;;;;5.25;4.50;;;;;22.87;42.93;101331.03;5056680;28;45382;-46
2021/08/27 02:11:15;;;;;;;;;6.00;5.25;;;;;22.89;42.98;101335.28;5057039;28;45565;-47
2021/08/27 02:13:40;;;;;;;;;6.75;5.00;;;;;22.88;43.28;101338.84;5056412;28;46516;-46
2021/08/27 02:16:09;;;;;;;;;6.75;5.25;;;;;22.89;43.29;101339.69;5056287;28;45324;-45
2021/08/27 02:18:34;;;;;;;;;6.50;6.50;;;;;22.87;43.11;101341.59;5056356;28;45441;-45
2021/08/27 02:21:04;;;;;;;;;6.75;6.00;;;;;22.87;43.17;101328.38;5056476;28;45525;-45
2021/08/27 02:23:30;;;;;;;;;8.00;5.00;;;;;22.86;43.03;101335.44;5056297;28;47108;-44
2021/08/27 02:25:59;;;;;;;;;10.00;6.00;;;;;22.88;43.14;101343.28;5056116;28;45693;-43
2021/08/27 02:28:26;;;;;;;;;6.25;6.25;;;;;22.87;43.17;101341.59;5055608;28;45316;-44
2021/08/27 02:30:54;;;;;;;;;6.75;5.25;;;;;22.85;43.25;101339.91;5056529;28;45323;-46
2021/08/27 02:33:20;;;;;;;;;7.50;6.00;;;;;22.85;43.11;101339.91;5056351;28;45787;-45
2021/08/27 02:35:47;;;;;;;;;8.00;5.25;;;;;22.85;43.33;101339.03;5056313;28;45323;-44
2021/08/27 02:38:19;;;;;;;;;7.00;6.00;;;;;22.85;43.21;101344.31;5056613;28;45348;-44
2021/08/27 02:40:45;;;;;;;;;7.00;6.75;;;;;22.85;43.18;101345.19;5056485;28;45431;-47
2021/08/27 02:43:10;;;;;;;;;6.25;6.25;;;;;22.84;43.38;101343.47;5056285;28;45356;-45
2021/08/27 02:45:36;;;;;;;;;6.75;6.25;;;;;22.83;43.46;101336.47;5056034;28;45323;-43
2021/08/27 02:48:01;;;;;;;;;8.25;5.25;;;;;22.83;43.30;101336.47;5056028;28;45355;-47
2021/08/27 02:50:31;;;;;;;;;5.00;5.00;;;;;22.82;43.19;101332.13;5056108;28;45614;-44
2021/08/27 02:53:07;;;;;;;;;8.25;5.00;;;;;22.83;43.37;101343.53;5055838;28;46201;-44
2021/08/27 02:55:38;;;;;;;;;8.50;5.00;;;;;22.83;43.33;101351.47;5055890;28;45379;-46
2021/08/27 02:58:07;;;;;;;;;8.50;7.25;;;;;22.81;43.33;101343.63;5056219;28;45343;-46
2021/08/27 03:00:51;;;;;;;;;6.00;6.00;;;;;22.80;43.33;101347.22;5055692;28;45336;-46
2021/08/27 03:03:19;;;;;;;;;7.75;6.00;;;;;22.82;43.50;101341.88;5055697;28;47564;-44
2021/08/27 03:05:46;;;;;;;;;7.00;7.00;;;;;22.80;43.57;101336.66;5056036;28;45883;-44
2021/08/27 03:08:20;;;;;;;;;8.75;7.00;;;;;22.81;43.39;101338.34;5056099;28;45227;-45
2021/08/27 03:10:54;;;;;;;;;7.75;6.25;;;;;22.80;43.46;101335.81;5056519;28;45803;-45
2021/08/27 03:13:32;;;;;;;;;7.00;5.75;;;;;22.81;43.58;101337.50;5055692;28;45483;-46
2021/08/27 03:16:04;;;;;;;;;6.50;6.00;;;;;22.81;43.39;101334.88;5055715;28;45902;-45
2021/08/27 03:18:51;;;;;;;;;5.25;4.00;;;;;22.81;43.48;101332.22;5055591;28;45286;-45
2021/08/27 03:21:38;;;;;;;;;8.25;4.00;;;;;22.81;43.37;101333.06;5054424;28;45371;-47
2021/08/27 03:24:31;;;;;;;;;11.50;7.00;;;;;22.80;43.48;101328.72;5055600;28;46540;-43
2021/08/27 03:27:03;;;;;;;;;7.00;6.50;;;;;22.80;43.38;101326.06;5027658;28;45566;-44
2021/08/27 03:29:34;;;;;;;;;6.00;6.00;;;;;22.78;43.55;101329.75;5055552;28;45519;-46
2021/08/27 03:32:01;;;;;;;;;6.50;5.50;;;;;22.80;43.24;101336.66;5055679;28;45434;-45
2021/08/27 03:34:27;;;;;;;;;9.50;6.00;;;;;22.80;43.48;101334.00;5055324;28;45581;-44
2021/08/27 03:36:56;;;;;;;;;6.25;5.75;;;;;22.79;43.61;101334.94;5055419;28;45818;-44
2021/08/27 03:39:22;;;;;;;;;7.00;5.00;;;;;22.79;43.48;101334.09;5055628;28;45299;-44
2021/08/27 03:41:47;;;;;;;;;7.75;6.50;;;;;22.79;43.77;101329.66;5059337;28;45177;-45
2021/08/27 03:44:17;;;;;;;;;6.00;5.75;;;;;22.78;43.55;101325.31;5058913;28;46448;-43
2021/08/27 03:46:43;;;;;;;;;8.25;5.50;;;;;22.78;43.42;101330.59;5058747;28;45435;-46
2021/08/27 03:49:09;;;;;;;;;5.50;5.50;;;;;22.78;43.52;101327.94;5058748;28;45316;-45
2021/08/27 03:51:35;;;;;;;;;8.50;6.25;;;;;22.77;43.60;101328.88;5058779;28;45297;-45
2021/08/27 03:54:02;;;;;;;;;6.25;6.25;;;;;22.79;43.62;101334.94;5058584;28;46230;-44
2021/08/27 03:56:27;;;;;;;;;6.50;6.50;;;;;22.78;43.40;101332.41;5058599;28;45734;-44
2021/08/27 03:58:54;;;;;;;;;6.75;3.50;;;;;22.78;43.60;101325.31;5058401;28;45758;-44
2021/08/27 04:01:22;;;;;;;;;8.00;7.00;;;;;22.78;43.62;101322.66;5058694;28;45495;-45
2021/08/27 04:03:47;;;;;;;;;9.50;7.50;;;;;22.75;43.63;101325.50;5058549;28;46559;-45
2021/08/27 04:06:12;;;;;;;;;6.25;5.25;;;;;22.77;43.56;101320.97;5058302;28;45384;-45
2021/08/27 04:08:40;;;;;;;;;6.25;5.75;;;;;22.77;43.62;101318.31;5058541;28;45317;-44
2021/08/27 04:11:08;;;;;;;;;9.50;6.75;;;;;22.78;43.69;101321.81;5058570;28;45501;-46
2021/08/27 04:13:34;;;;;;;;;6.00;6.00;;;;;22.77;43.49;101317.47;5058215;28;45464;-44
2021/08/27 04:16:00;;;;;;;;;7.00;6.00;;;;;22.78;43.67;101321.81;5058315;28;45463;-47
2021/08/27 04:18:25;;;;;;;;;9.00;6.00;;;;;22.76;43.99;101318.41;5058162;28;45406;-50
2021/08/27 04:20:51;;;;;;;;;8.00;8.00;;;;;22.76;43.83;101319.28;5058420;28;45435;-45
2021/08/27 04:23:16;;;;;;;;;9.50;6.50;;;;;22.77;43.72;101314.84;5058176;28;46104;-45
2021/08/27 04:25:41;;;;;;;;;7.25;5.75;;;;;22.75;43.74;101312.28;5058016;28;45463;-44
2021/08/27 04:28:08;;;;;;;;;10.25;8.00;;;;;22.76;43.93;101311.34;5039999;28;45310;-46
2021/08/27 04:30:34;;;;;;;;;8.00;8.00;;;;;22.76;43.96;101310.50;5058233;28;45451;-45
2021/08/27 04:33:01;;;;;;;;;8.00;6.00;;;;;22.75;43.66;101316.72;5058055;28;45684;-46
2021/08/27 04:35:26;;;;;;;;;7.00;6.00;;;;;22.75;43.95;101320.22;5057784;28;45245;-45
2021/08/27 04:37:53;;;;;;;;;9.50;7.00;;;;;22.74;43.82;101321.16;5057946;28;45490;-45
2021/08/27 04:40:20;;;;;;;;;7.50;6.50;;;;;22.76;43.96;101321.06;5058213;28;45307;-46
2021/08/27 04:42:45;;;;;;;;;9.25;6.00;;;;;22.75;43.92;101322.88;5057713;28;45653;-46
2021/08/27 04:45:11;;;;;;;;;9.75;8.00;;;;;22.74;43.71;101326.44;5057739;28;45833;-44
2021/08/27 04:47:36;;;;;;;;;7.25;5.25;;;;;22.75;43.90;101327.28;5057777;28;45435;-43
2021/08/27 04:50:02;;;;;;;;;6.75;6.75;;;;;22.74;43.95;101326.44;5057406;28;45359;-43
2021/08/27 04:52:28;;;;;;;;;7.75;6.25;;;;;22.74;44.01;101331.72;5057388;28;46627;-44
2021/08/27 04:54:53;;;;;;;;;6.25;5.00;;;;;22.74;43.96;101336.13;5057425;28;46250;-42
2021/08/27 04:57:18;;;;;;;;;9.00;7.00;;;;;22.73;44.06;101335.31;5057862;28;45521;-44
2021/08/27 04:59:46;;;;;;;;;8.75;8.50;;;;;22.74;44.11;101341.44;5057551;28;45629;-44
2021/08/27 05:02:12;;;;;;;;;7.00;5.25;;;;;22.74;44.09;101342.28;5057379;28;45336;-44
2021/08/27 05:04:37;;;;;;;;;8.25;7.75;;;;;22.72;44.00;101341.53;5057259;28;45737;-44
2021/08/27 05:07:03;;;;;;;;;7.00;6.00;;;;;22.72;44.22;101344.16;5057467;28;45383;-45
2021/08/27 05:09:29;;;;;;;;;7.00;5.00;;;;;22.72;44.25;101349.44;5057638;28;45409;-44
2021/08/27 05:11:54;;;;;;;;;8.00;7.00;;;;;22.73;44.08;101356.44;5057295;28;45448;-46
2021/08/27 05:14:19;;;;;;;;;9.00;8.00;;;;;22.73;44.09;101361.72;5057503;28;45317;-44
2021/08/27 05:16:45;;;;;;;;;7.75;6.50;;;;;22.72;44.25;101365.31;5057366;28;45361;-44
2021/08/27 05:19:10;;;;;;;;;8.75;7.75;;;;;22.72;44.10;101370.59;5057426;28;45565;-44
2021/08/27 05:21:37;;;;;;;;;7.25;6.50;;;;;22.72;44.10;101373.22;5056832;28;45579;-46
2021/08/27 05:24:03;;;;;;;;;9.25;8.50;;;;;22.72;44.51;101373.22;5057196;28;45819;-44
2021/08/27 05:26:29;;;;;;;;;10.25;7.00;;;;;22.72;44.37;101375.00;5057304;28;45437;-45
2021/08/27 05:28:54;;;;;;;;;10.75;7.50;;;;;22.72;44.46;101367.06;5057282;28;45355;-45
2021/08/27 05:31:19;;;;;;;;;11.75;8.00;;;;;22.71;44.17;101368.88;5056984;28;45512;-44
2021/08/27 05:33:45;;;;;;;;;7.00;7.00;;;;;22.70;44.48;101368.03;5056946;28;45360;-44
2021/08/27 05:36:10;;;;;;;;;7.50;7.25;;;;;22.70;44.40;101370.69;5057107;28;45362;-44
2021/08/27 05:38:36;;;;;;;;;6.25;6.25;;;;;22.71;44.32;101379.47;5057212;28;45563;-43
2021/08/27 05:41:02;;;;;;;;;9.25;7.50;;;;;22.72;44.34;101373.22;5038660;28;47195;-45
2021/08/27 05:43:27;;;;;;;;;8.00;6.25;;;;;22.70;44.51;101377.75;5056627;28;45644;-46
2021/08/27 05:45:53;;;;;;;;;7.25;7.00;;;;;22.70;44.41;101381.25;5057283;28;45447;-44
2021/08/27 05:48:18;;;;;;;;;9.75;6.25;;;;;22.70;44.57;101383.91;5057229;28;45607;-45
2021/08/27 05:50:44;;;;;;;;;9.75;7.25;;;;;22.68;44.53;101383.13;5056813;28;46050;-46
2021/08/27 05:53:09;;;;;;;;;15.50;8.25;;;;;22.70;44.71;101385.69;5056702;28;45411;-45
2021/08/27 05:55:35;;;;;;;;;12.00;9.00;;;;;22.70;44.48;101383.91;5056818;28;45819;-46
2021/08/27 05:58:00;;;;;;;;;8.25;8.00;;;;;22.69;44.58;101391.91;5056864;28;45303;-45
2021/08/27 06:00:25;;;;;;;;;8.25;8.00;;;;;22.69;44.75;101391.91;5056298;28;46140;-45
2021/08/27 06:02:51;;;;;;;;;9.00;9.00;;;;;22.68;44.83;101395.47;5037628;28;45939;-43
2021/08/27 06:05:18;;;;;;;;;12.25;10.75;;;;;22.68;45.23;101395.47;5056721;28;45818;-43
2021/08/27 06:07:44;;;;;;;;;10.50;9.00;;;;;22.66;45.04;101395.56;5056832;28;45288;-44
2021/08/27 06:10:11;;;;;;;;;11.25;11.25;;;;;22.66;45.22;101392.94;5056422;28;45658;-44
2021/08/27 06:12:37;;;;;;;;;14.00;11.00;;;;;22.65;45.19;101399.16;5056385;28;45853;-44
2021/08/27 06:15:02;;;;;;;;;9.50;7.50;;;;;22.66;45.33;101405.25;5056564;28;45469;-44
2021/08/27 06:17:28;;;;;;;;;10.25;8.25;;;;;22.67;45.26;101404.34;5056598;28;45336;-44
2021/08/27 06:19:53;;;;;;;;;11.50;10.75;;;;;22.66;45.30;101407.91;5056625;28;45491;-43
2021/08/27 06:22:19;;;;;;;;;11.50;9.00;;;;;22.66;45.22;101402.63;5056404;28;45582;-44
2021/08/27 06:24:45;;;;;;;;;12.00;11.25;;;;;22.67;45.45;101409.63;5056312;28;45327;-46
2021/08/27 06:27:10;;;;;;;;;10.00;8.75;;;;;22.66;45.51;101406.13;5056258;28;45573;-44
2021/08/27 06:29:36;;;;;;;;;12.75;11.25;;;;;22.67;45.02;101407.84;5056257;28;45911;-47
2021/08/27 06:32:01;;;;;;;;;10.75;9.50;;;;;22.67;45.23;101404.34;5055903;28;45414;-44
2021/08/27 06:34:27;;;;;;;;;11.00;8.50;;;;;22.67;45.62;101407.84;5056310;28;45498;-44
2021/08/27 06:36:52;;;;;;;;;9.75;8.75;;;;;22.68;45.28;101411.31;5056580;28;45640;-44
2021/08/27 06:39:17;;;;;;;;;13.00;9.00;;;;;22.67;45.05;101413.13;5055885;28;45518;-43
2021/08/27 06:41:43;;;;;;;;;13.75;9.25;;;;;22.68;45.49;101417.47;5055992;28;45360;-45
2021/08/27 06:44:08;;;;;;;;;12.25;7.25;;;;;22.68;45.69;101421.91;5056119;28;45373;-43
2021/08/27 06:46:33;;;;;;;;;11.75;10.50;;;;;22.69;45.37;101428.88;5056231;28;45526;-43
2021/08/27 06:48:59;;;;;;;;;10.50;9.75;;;;;22.68;45.30;101432.47;5055739;28;45569;-44
2021/08/27 06:51:24;;;;;;;;;13.75;10.00;;;;;22.69;45.16;101436.81;5056173;28;45213;-43
2021/08/27 06:53:53;;;;;;;;;8.50;8.50;;;;;22.70;45.25;101434.09;5056119;28;45232;-43
2021/08/27 06:56:22;;;;;;;;;10.75;10.75;;;;;22.71;45.12;101429.66;5056324;28;45414;-43
2021/08/27 06:58:49;;;;;;;;;11.50;8.50;;;;;22.71;45.33;101432.31;5055540;28;45518;-48
2021/08/27 07:01:14;;;;;;;;;8.75;8.75;;;;;22.71;45.28;101437.59;5055656;28;45231;-43
2021/08/27 07:03:40;;;;;;;;;12.50;9.50;;;;;22.70;45.41;101435.88;5055805;28;45365;-46
2021/08/27 07:06:05;;;;;;;;;11.25;9.50;;;;;22.73;45.33;101440.13;5055923;28;45645;-45
2021/08/27 07:08:30;;;;;;;;;12.75;10.75;;;;;22.72;45.41;101436.66;5054255;28;45245;-43
2021/08/27 07:10:56;;;;;;;;;12.75;10.25;;;;;22.71;45.49;101437.59;5056227;28;45221;-45
2021/08/27 07:13:21;;;;;;;;;11.50;9.25;;;;;22.73;45.67;101438.34;5056014;28;45447;-43
2021/08/27 07:15:47;;;;;;;;;10.00;8.25;;;;;22.73;45.47;101448.94;5059315;28;45172;-44
2021/08/27 07:18:13;;;;;;;;;11.00;9.50;;;;;22.74;45.45;101444.47;5058991;28;46444;-47
2021/08/27 07:20:38;;;;;;;;;11.00;9.75;;;;;22.74;45.46;101448.00;5058904;28;45332;-44
2021/08/27 07:23:04;;;;;;;;;11.25;7.75;;;;;22.75;45.40;101449.72;5041223;28;45446;-43
2021/08/27 07:25:30;;;;;;;;;13.75;12.00;;;;;22.74;45.34;101452.41;5059360;28;45329;-43
2021/08/27 07:27:56;;;;;;;;;16.25;10.75;;;;;22.74;45.37;101448.00;5059121;28;46743;-44
2021/08/27 07:30:21;;;;;;;;;9.25;8.25;;;;;22.74;45.60;101449.78;5058781;28;45451;-45
2021/08/27 07:32:47;;;;;;;;;10.25;10.25;;;;;22.74;45.20;101453.28;5059081;28;45625;-44
2021/08/27 07:35:13;;;;;;;;;9.00;8.00;;;;;22.75;45.38;101460.28;5059153;28;45461;-47
2021/08/27 07:37:40;;;;;;;;;10.75;10.75;;;;;22.76;45.34;101461.97;5058744;28;45569;-47
2021/08/27 07:40:07;;;;;;;;;10.50;9.25;;;;;22.76;45.31;101466.41;5058745;28;45703;-44
2021/08/27 07:42:33;;;;;;;;;15.00;11.00;;;;;22.75;45.76;101460.28;5058782;28;45320;-42
2021/08/27 07:44:59;;;;;;;;;12.25;10.50;;;;;22.77;45.30;101468.94;5059232;28;45450;-45
2021/08/27 07:47:24;;;;;;;;;11.25;9.50;;;;;22.77;45.36;101470.75;5057608;28;45932;-43
2021/08/27 07:49:49;;;;;;;;;11.25;8.25;;;;;22.77;45.50;101471.59;5058753;28;45331;-44
2021/08/27 07:52:15;;;;;;;;;12.00;8.25;;;;;22.76;45.40;101461.97;5058773;28;45391;-44
2021/08/27 07:54:40;;;;;;;;;13.50;10.00;;;;;22.77;45.29;101468.09;5059005;28;45466;-43
2021/08/27 07:57:05;;;;;;;;;11.25;8.75;;;;;22.77;45.39;101458.38;5058467;28;45266;-44
2021/08/27 07:59:31;;;;;;;;;11.50;11.00;;;;;22.77;45.51;101461.03;5058179;28;45447;-44
2021/08/27 08:01:56;;;;;;;;;8.50;8.50;;;;;22.78;45.43;101457.44;5058820;28;45397;-44
2021/08/27 08:04:21;;;;;;;;;9.75;8.25;;;;;22.79;45.42;101455.66;5058739;28;45448;-44
2021/08/27 08:06:47;;;;;;;;;13.00;10.00;;;;;22.79;45.17;101469.72;5058446;28;45380;-45
2021/08/27 08:09:12;;;;;;;;;11.75;10.50;;;;;22.79;45.45;101467.06;5058269;28;45275;-46
2021/08/27 08:11:38;;;;;;;;;11.75;10.25;;;;;22.81;45.37;101475.78;5058336;28;45399;-44
2021/08/27 08:14:03;;;;;;;;;8.75;8.25;;;;;22.80;45.40;101476.72;5058391;28;45454;-43
2021/08/27 08:16:28;;;;;;;;;14.00;10.50;;;;;22.83;45.14;101483.63;5058399;28;45367;-44
2021/08/27 08:18:54;;;;;;;;;9.75;9.75;;;;;22.82;45.32;101469.56;5058155;28;45423;-44
2021/08/27 08:21:23;;;;;;;;;11.50;10.50;;;;;22.85;44.88;101468.53;5058389;28;45345;-46
2021/08/27 08:23:53;;;;;;;;;6.00;4.00;;;;;22.84;45.15;101469.47;5058432;28;45598;-44
2021/08/27 08:26:20;;;;;;;;;10.25;9.25;;;;;22.84;44.88;101475.63;5057124;28;45537;-44
2021/08/27 08:28:50;;;;;;;;;9.75;8.00;;;;;22.82;44.84;101476.66;5057896;28;45244;-44
2021/08/27 08:31:18;;;;;;;;;9.25;9.25;;;;;22.83;44.98;101481.84;5040130;28;45435;-45
2021/08/27 08:33:45;;;;;;;;;8.75;7.00;;;;;22.83;45.05;101487.13;5058124;28;45557;-46
2021/08/27 08:36:11;;;;;;;;;7.75;7.25;;;;;22.82;44.78;101480.13;5057875;28;45512;-46
2021/08/27 08:38:36;;;;;;;;;9.50;8.75;;;;;22.80;44.64;101475.88;5057689;28;45294;-47
2021/08/27 08:41:02;;;;;;;;;8.50;6.75;;;;;22.78;44.23;101483.88;5057969;28;45206;-49
2021/08/27 08:43:29;;;;;;;;;7.25;7.00;;;;;22.79;44.80;101485.56;5058421;28;45534;-44
2021/08/27 08:45:55;;;;;;;;;10.00;8.50;;;;;22.78;44.69;101483.88;5057753;28;45822;-46
2021/08/27 08:48:22;;;;;;;;;7.00;7.00;;;;;22.78;44.59;101475.09;5057822;28;45422;-49
2021/08/27 08:50:48;;;;;;;;;6.00;3.00;;;;;22.79;44.65;101482.94;5057816;28;45380;-46
2021/08/27 08:53:13;;;;;;;;;7.50;7.00;;;;;22.80;44.51;101479.34;5058049;28;45425;-44
2021/08/27 08:55:41;;;;;;;;;8.50;8.00;;;;;22.83;44.50;101484.47;5057568;28;46278;-43
2021/08/27 08:58:07;;;;;;;;;8.00;8.00;;;;;22.83;44.47;101481.84;5057620;28;45221;-43
2021/08/27 09:00:33;;;;;;;;;8.50;7.00;;;;;22.86;44.46;101475.53;5057732;28;45301;-45
2021/08/27 09:03:00;;;;;;;;;8.75;7.00;;;;;22.86;44.32;101488.75;5058067;28;45502;-44
2021/08/27 09:05:25;;;;;;;;;13.25;6.50;;;;;22.86;44.59;101483.44;5057480;28;46538;-43
2021/08/27 09:07:52;;;;;;;;;8.75;8.00;;;;;22.89;44.15;101487.72;5039449;28;45681;-44
2021/08/27 09:10:18;;;;;;;;;8.75;7.25;;;;;22.88;44.28;101491.28;5057444;28;45368;-43
2021/08/27 09:12:44;;;;;;;;;8.25;7.00;;;;;22.89;43.95;101479.78;5058009;28;45549;-44
2021/08/27 09:15:11;;;;;;;;;5.75;4.00;;;;;22.90;44.14;101494.69;5057278;28;45656;-43
2021/08/27 09:17:41;;;;;;;;;6.00;6.00;;;;;22.92;44.04;101484.91;5057292;28;45324;-44
2021/08/27 09:20:11;;;;;;;;;8.00;8.00;;;;;22.93;43.91;101489.25;5057309;28;45494;-44
2021/08/27 09:23:01;;;;;;;;;5.75;5.75;;;;;22.93;43.81;101483.97;5057490;28;45495;-44
2021/08/27 09:25:32;;;;;;;;;6.00;5.00;;;;;22.93;43.79;101503.31;5056888;28;46399;-45
2021/08/27 09:28:07;;;;;;;;;8.00;7.25;;;;;22.94;43.70;101499.72;5057124;28;45230;-44
2021/08/27 09:30:46;;;;;;;;;6.00;6.00;;;;;22.95;43.72;101498.81;5057384;28;45454;-46
2021/08/27 09:33:20;;;;;;;;;6.00;5.00;;;;;22.98;43.61;101498.63;5057236;28;45320;-46
2021/08/27 09:36:04;;;;;;;;;5.25;4.50;;;;;23.00;43.47;101501.19;5056627;28;46528;-43
2021/08/27 09:38:34;;;;;;;;;6.75;6.50;;;;;22.99;43.33;101494.19;5056927;28;45424;-43
2021/08/27 09:41:05;;;;;;;;;7.25;5.25;;;;;22.98;43.24;101497.81;5057214;28;45929;-44
2021/08/27 09:43:43;;;;;;;;;6.25;6.25;;;;;22.95;42.86;101488.22;5057103;28;45448;-43
2021/08/27 09:46:27;;;;;;;;;6.50;5.00;;;;;22.96;42.91;101489.09;5056709;28;45560;-43
2021/08/27 09:48:53;;;;;;;;;7.50;6.25;;;;;22.96;43.03;101489.09;5056719;28;45438;-46
2021/08/27 09:51:39;;;;;;;;;7.50;6.50;;;;;22.96;43.30;101500.50;5056789;28;45296;-44
2021/08/27 09:54:05;;;;;;;;;6.25;5.00;;;;;22.96;43.12;101500.50;5057193;28;45282;-44
2021/08/27 09:56:51;;;;;;;;;7.25;5.75;;;;;22.98;43.11;101503.09;5055270;28;48813;-46
2021/08/27 09:59:16;;;;;;;;;7.75;6.50;;;;;22.97;42.97;101496.09;5056219;28;45814;-45
2021/08/27 10:01:49;;;;;;;;;6.50;6.00;;;;;22.96;42.94;101489.09;5056705;28;45376;-47
2021/08/27 10:04:15;;;;;;;;;7.00;5.75;;;;;22.96;42.99;101497.88;5056956;28;45300;-47
2021/08/27 10:06:42;;;;;;;;;6.25;5.00;;;;;22.97;42.65;101490.81;5056312;28;46370;-45
2021/08/27 10:09:07;;;;;;;;;7.00;5.25;;;;;22.97;42.87;101482.88;5056463;28;45395;-45
2021/08/27 10:11:33;;;;;;;;;6.75;4.00;;;;;22.96;42.83;101484.66;5056971;28;45442;-46
2021/08/27 10:13:59;;;;;;;;;6.25;6.25;;;;;22.97;42.96;101481.06;5056774;28;45598;-45
2021/08/27 10:16:25;;;;;;;;;7.25;6.00;;;;;22.99;42.78;101483.63;5056182;28;46986;-45
2021/08/27 10:18:50;;;;;;;;;4.50;4.50;;;;;22.98;42.45;101482.78;5056349;28;45320;-45
2021/08/27 10:21:16;;;;;;;;;4.00;4.00;;;;;22.99;42.25;101478.31;5056259;28;45428;-46
2021/08/27 10:23:43;;;;;;;;;5.00;4.00;;;;;22.98;42.05;101474.84;5056676;28;45392;-46
2021/08/27 10:26:13;;;;;;;;;5.75;5.00;;;;;22.98;42.19;101481.94;5056014;28;45454;-45
2021/08/27 10:28:38;;;;;;;;;4.75;3.50;;;;;22.99;42.10;101473.91;5056298;28;45245;-47
2021/08/27 10:31:04;;;;;;;;;5.50;3.00;;;;;23.00;41.94;101474.75;5056535;28;45349;-45
2021/08/27 10:33:39;;;;;;;;;2.25;2.25;;;;;23.00;41.69;101474.75;5056391;28;45379;-46
2021/08/27 10:36:09;;;;;;;;;5.75;2.75;;;;;23.00;41.84;101469.47;5056102;28;46458;-46
2021/08/27 10:38:40;;;;;;;;;5.75;4.00;;;;;23.00;41.52;101472.97;5056210;28;45630;-46
2021/08/27 10:41:16;;;;;;;;;4.50;3.25;;;;;23.01;41.52;101476.47;5056446;28;45416;-47
2021/08/27 10:44:05;;;;;;;;;3.75;3.75;;;;;22.99;41.11;101475.69;5056275;28;45370;-45
2021/08/27 10:46:46;;;;;;;;;3.00;3.00;;;;;22.99;41.19;101475.69;5055751;28;46320;-46
2021/08/27 10:49:12;;;;;;;;;2.25;2.00;;;;;22.98;41.07;101482.78;5057518;28;45380;-48
2021/08/27 10:51:43;;;;;;;;;2.50;2.50;;;;;22.98;40.98;101482.78;5059976;28;45383;-46
2021/08/27 10:54:11;;;;;;;;;1.25;1.25;;;;;22.97;41.02;101473.13;5060177;28;45268;-45
2021/08/27 10:56:53;;;;;;;;;3.00;3.00;;;;;22.98;41.14;101471.38;5059538;28;46799;-45
2021/08/27 10:59:21;;;;;;;;;4.75;2.50;;;;;22.98;41.00;101471.38;5059170;28;45194;-46
2021/08/27 11:01:58;;;;;;;;;4.00;4.00;;;;;22.97;40.91;101467.84;5059439;28;45300;-49
2021/08/27 11:04:25;;;;;;;;;2.00;2.00;;;;;22.97;40.97;101481.06;5059655;28;45570;-45
2021/08/27 11:06:53;;;;;;;;;2.25;2.00;;;;;22.96;40.78;101474.06;5059163;28;46513;-46
2021/08/27 11:09:33;;;;;;;;;3.00;3.00;;;;;22.96;40.89;101473.22;5059171;28;45676;-46
2021/08/27 11:12:09;;;;;;;;;5.25;2.25;;;;;22.97;40.70;101480.22;5059483;28;45441;-45
2021/08/27 11:14:36;;;;;;;;;3.50;2.75;;;;;22.98;40.70;101474.84;5059489;28;45232;-44
2021/08/27 11:17:05;;;;;;;;;4.00;1.50;;;;;23.00;40.17;101480.91;5059055;28;46483;-44
2021/08/27 11:19:31;;;;;;;;;4.50;2.75;;;;;22.99;40.26;101476.56;5059093;28;45925;-45
2021/08/27 11:22:21;;;;;;;;;2.00;2.00;;;;;22.99;40.28;101475.69;5059246;28;45371;-43
2021/08/27 11:25:01;;;;;;;;;2.25;2.25;;;;;22.99;40.26;101470.41;5050492;28;45548;-46
2021/08/27 11:27:28;;;;;;;;;2.50;2.50;;;;;23.01;40.22;101473.81;5058871;28;46432;-44